sensor_id;sensor_type;location;lat;lon;timestamp;P1;durP1;ratioP1;P2;durP2;ratioP2
28774;SDS011;15926;51.348;6.596;2022-10-17T04:01:18;16.77;;;11.07;;
28774;SDS011;15926;51.348;6.596;2022-10-17T04:03:47;17.40;;;11.80;;
28774;SDS011;15926;51.348;6.596;2022-10-17T04:06:13;21.38;;;12.45;;
28774;SDS011;15926;51.348;6.596;2022-10-17T04:08:39;21.17;;;11.75;;
28774;SDS011;15926;51.348;6.596;2022-10-17T04:11:06;17.13;;;12.07;;
28774;SDS011;15926;51.348;6.596;2022-10-17T04:13:34;18.45;;;11.18;;
28774;SDS011;15926;51.348;6.596;2022-10-17T04:16:01;17.77;;;12.15;;
28774;SDS011;15926;51.348;6.596;2022-10-17T04:18:27;24.85;;;12.07;;
28774;SDS011;15926;51.348;6.596;2022-10-17T04:20:53;17.42;;;11.13;;
28774;SDS011;15926;51.348;6.596;2022-10-17T04:23:19;23.50;;;12.25;;
28774;SDS011;15926;51.348;6.596;2022-10-17T04:25:45;21.80;;;11.73;;
28774;SDS011;15926;51.348;6.596;2022-10-17T04:28:11;18.73;;;11.70;;
28774;SDS011;15926;51.348;6.596;2022-10-17T04:30:37;17.95;;;11.27;;
28774;SDS011;15926;51.348;6.596;2022-10-17T04:33:04;17.92;;;11.27;;
28774;SDS011;15926;51.348;6.596;2022-10-17T04:35:30;20.27;;;11.25;;
28774;SDS011;15926;51.348;6.596;2022-10-17T04:37:56;22.15;;;11.50;;
28774;SDS011;15926;51.348;6.596;2022-10-17T04:40:22;20.23;;;11.68;;
28774;SDS011;15926;51.348;6.596;2022-10-17T04:42:48;18.45;;;11.38;;
28774;SDS011;15926;51.348;6.596;2022-10-17T04:45:15;17.60;;;11.18;;
28774;SDS011;15926;51.348;6.596;2022-10-17T04:47:41;17.58;;;11.82;;
28774;SDS011;15926;51.348;6.596;2022-10-17T04:50:07;20.15;;;11.13;;
28774;SDS011;15926;51.348;6.596;2022-10-17T04:52:34;17.05;;;12.02;;
28774;SDS011;15926;51.348;6.596;2022-10-17T04:55:01;15.18;;;10.95;;
28774;SDS011;15926;51.348;6.596;2022-10-17T04:57:28;20.73;;;11.45;;
28774;SDS011;15926;51.348;6.596;2022-10-17T04:59:54;16.48;;;11.05;;
28774;SDS011;15926;51.348;6.596;2022-10-17T05:02:20;16.15;;;10.15;;
28774;SDS011;15926;51.348;6.596;2022-10-17T05:04:46;16.08;;;10.13;;
28774;SDS011;15926;51.348;6.596;2022-10-17T05:07:11;15.18;;;10.70;;
28774;SDS011;15926;51.348;6.596;2022-10-17T05:09:37;16.98;;;9.63;;
28774;SDS011;15926;51.348;6.596;2022-10-17T05:12:04;15.55;;;10.52;;
28774;SDS011;15926;51.348;6.596;2022-10-17T05:14:30;17.00;;;10.38;;
28774;SDS011;15926;51.348;6.596;2022-10-17T05:16:55;16.40;;;10.82;;
28774;SDS011;15926;51.348;6.596;2022-10-17T05:19:21;15.70;;;10.63;;
28774;SDS011;15926;51.348;6.596;2022-10-17T05:21:47;14.18;;;10.35;;
28774;SDS011;15926;51.348;6.596;2022-10-17T05:24:13;22.52;;;10.70;;
28774;SDS011;15926;51.348;6.596;2022-10-17T05:26:39;15.18;;;10.30;;
28774;SDS011;15926;51.348;6.596;2022-10-17T05:29:05;15.02;;;9.75;;
28774;SDS011;15926;51.348;6.596;2022-10-17T05:31:31;14.43;;;10.07;;
28774;SDS011;15926;51.348;6.596;2022-10-17T05:34:01;15.77;;;9.95;;
28774;SDS011;15926;51.348;6.596;2022-10-17T05:36:27;12.60;;;9.70;;
28774;SDS011;15926;51.348;6.596;2022-10-17T05:38:53;11.85;;;10.40;;
28774;SDS011;15926;51.348;6.596;2022-10-17T05:41:19;17.00;;;11.10;;
28774;SDS011;15926;51.348;6.596;2022-10-17T05:43:45;15.95;;;10.85;;
28774;SDS011;15926;51.348;6.596;2022-10-17T05:46:11;17.90;;;10.35;;
28774;SDS011;15926;51.348;6.596;2022-10-17T05:48:38;17.17;;;10.18;;
28774;SDS011;15926;51.348;6.596;2022-10-17T05:51:05;16.52;;;10.35;;
28774;SDS011;15926;51.348;6.596;2022-10-17T05:53:33;13.95;;;10.07;;
28774;SDS011;15926;51.348;6.596;2022-10-17T05:56:00;16.25;;;10.07;;
28774;SDS011;15926;51.348;6.596;2022-10-17T05:58:26;15.25;;;10.27;;
28774;SDS011;15926;51.348;6.596;2022-10-17T06:01:00;15.35;;;9.98;;
28774;SDS011;15926;51.348;6.596;2022-10-17T06:03:26;14.63;;;9.55;;
28774;SDS011;15926;51.348;6.596;2022-10-17T06:05:52;14.23;;;10.25;;
28774;SDS011;15926;51.348;6.596;2022-10-17T06:08:19;14.10;;;10.45;;
28774;SDS011;15926;51.348;6.596;2022-10-17T06:10:48;11.50;;;9.10;;
28774;SDS011;15926;51.348;6.596;2022-10-17T06:13:15;13.80;;;9.23;;
28774;SDS011;15926;51.348;6.596;2022-10-17T06:15:41;13.27;;;9.15;;
28774;SDS011;15926;51.348;6.596;2022-10-17T06:18:07;12.85;;;9.63;;
28774;SDS011;15926;51.348;6.596;2022-10-17T06:20:34;19.40;;;9.60;;
28774;SDS011;15926;51.348;6.596;2022-10-17T06:23:00;15.45;;;9.13;;
28774;SDS011;15926;51.348;6.596;2022-10-17T06:25:26;13.18;;;8.95;;
28774;SDS011;15926;51.348;6.596;2022-10-17T06:27:53;15.38;;;8.90;;
28774;SDS011;15926;51.348;6.596;2022-10-17T06:30:19;13.98;;;8.52;;
28774;SDS011;15926;51.348;6.596;2022-10-17T06:32:45;12.85;;;8.32;;
28774;SDS011;15926;51.348;6.596;2022-10-17T06:35:11;14.73;;;9.30;;
28774;SDS011;15926;51.348;6.596;2022-10-17T06:37:37;12.40;;;8.93;;
28774;SDS011;15926;51.348;6.596;2022-10-17T06:40:03;10.48;;;9.20;;
28774;SDS011;15926;51.348;6.596;2022-10-17T06:42:31;17.05;;;8.93;;
28774;SDS011;15926;51.348;6.596;2022-10-17T06:44:58;10.15;;;8.70;;
28774;SDS011;15926;51.348;6.596;2022-10-17T06:47:24;11.02;;;8.35;;
28774;SDS011;15926;51.348;6.596;2022-10-17T06:49:50;12.98;;;8.88;;
28774;SDS011;15926;51.348;6.596;2022-10-17T06:52:16;11.38;;;8.30;;
28774;SDS011;15926;51.348;6.596;2022-10-17T06:54:42;8.77;;;7.60;;
28774;SDS011;15926;51.348;6.596;2022-10-17T06:57:09;12.38;;;7.97;;
28774;SDS011;15926;51.348;6.596;2022-10-17T06:59:35;10.23;;;7.65;;
28774;SDS011;15926;51.348;6.596;2022-10-17T07:02:01;22.75;;;8.52;;
28774;SDS011;15926;51.348;6.596;2022-10-17T07:04:27;9.20;;;7.80;;
28774;SDS011;15926;51.348;6.596;2022-10-17T07:06:53;11.65;;;7.30;;
28774;SDS011;15926;51.348;6.596;2022-10-17T07:09:19;14.55;;;7.85;;
28774;SDS011;15926;51.348;6.596;2022-10-17T07:11:46;11.07;;;7.35;;
28774;SDS011;15926;51.348;6.596;2022-10-17T07:14:12;9.63;;;7.30;;
28774;SDS011;15926;51.348;6.596;2022-10-17T07:16:38;13.45;;;7.90;;
28774;SDS011;15926;51.348;6.596;2022-10-17T07:19:04;10.27;;;6.82;;
28774;SDS011;15926;51.348;6.596;2022-10-17T07:21:30;9.38;;;6.38;;
28774;SDS011;15926;51.348;6.596;2022-10-17T07:23:57;9.45;;;8.27;;
28774;SDS011;15926;51.348;6.596;2022-10-17T07:26:23;8.38;;;6.13;;
28774;SDS011;15926;51.348;6.596;2022-10-17T07:28:50;7.47;;;6.03;;
28774;SDS011;15926;51.348;6.596;2022-10-17T07:31:17;10.70;;;7.38;;
28774;SDS011;15926;51.348;6.596;2022-10-17T07:33:44;6.75;;;6.18;;
28774;SDS011;15926;51.348;6.596;2022-10-17T07:36:10;8.88;;;5.53;;
28774;SDS011;15926;51.348;6.596;2022-10-17T07:38:36;10.00;;;6.32;;
28774;SDS011;15926;51.348;6.596;2022-10-17T07:41:03;6.75;;;6.15;;
28774;SDS011;15926;51.348;6.596;2022-10-17T07:43:30;7.70;;;5.03;;
28774;SDS011;15926;51.348;6.596;2022-10-17T07:45:56;8.18;;;4.95;;
28774;SDS011;15926;51.348;6.596;2022-10-17T07:48:22;7.15;;;5.30;;
28774;SDS011;15926;51.348;6.596;2022-10-17T07:50:49;6.40;;;5.53;;
28774;SDS011;15926;51.348;6.596;2022-10-17T07:53:15;5.40;;;4.90;;
28774;SDS011;15926;51.348;6.596;2022-10-17T07:55:41;6.70;;;4.93;;
28774;SDS011;15926;51.348;6.596;2022-10-17T07:58:08;7.18;;;4.70;;
28774;SDS011;15926;51.348;6.596;2022-10-17T08:00:35;5.40;;;4.90;;
28774;SDS011;15926;51.348;6.596;2022-10-17T08:03:02;4.55;;;4.15;;
28774;SDS011;15926;51.348;6.596;2022-10-17T08:05:28;9.40;;;4.60;;
28774;SDS011;15926;51.348;6.596;2022-10-17T08:07:54;9.55;;;4.32;;
28774;SDS011;15926;51.348;6.596;2022-10-17T08:10:21;6.88;;;4.50;;
28774;SDS011;15926;51.348;6.596;2022-10-17T08:12:51;8.70;;;4.43;;
28774;SDS011;15926;51.348;6.596;2022-10-17T08:15:17;6.38;;;4.40;;
28774;SDS011;15926;51.348;6.596;2022-10-17T08:17:43;9.30;;;4.78;;
28774;SDS011;15926;51.348;6.596;2022-10-17T08:20:09;6.68;;;3.97;;
28774;SDS011;15926;51.348;6.596;2022-10-17T08:22:36;6.22;;;4.10;;
28774;SDS011;15926;51.348;6.596;2022-10-17T08:25:02;6.10;;;4.28;;
28774;SDS011;15926;51.348;6.596;2022-10-17T08:27:28;4.55;;;4.13;;
28774;SDS011;15926;51.348;6.596;2022-10-17T08:29:54;4.88;;;3.65;;
28774;SDS011;15926;51.348;6.596;2022-10-17T08:32:20;5.22;;;3.53;;
28774;SDS011;15926;51.348;6.596;2022-10-17T08:34:47;5.82;;;3.97;;
28774;SDS011;15926;51.348;6.596;2022-10-17T08:37:13;5.20;;;3.50;;
28774;SDS011;15926;51.348;6.596;2022-10-17T08:39:40;5.65;;;3.33;;
28774;SDS011;15926;51.348;6.596;2022-10-17T08:44:42;3.92;;;3.60;;
28774;SDS011;15926;51.348;6.596;2022-10-17T08:47:15;4.53;;;3.92;;
28774;SDS011;15926;51.348;6.596;2022-10-17T08:49:46;6.20;;;3.97;;
28774;SDS011;15926;51.348;6.596;2022-10-17T08:52:19;4.45;;;3.63;;
28774;SDS011;15926;51.348;6.596;2022-10-17T08:54:47;4.28;;;3.83;;
28774;SDS011;15926;51.348;6.596;2022-10-17T08:57:14;5.97;;;3.45;;
28774;SDS011;15926;51.348;6.596;2022-10-17T08:59:43;6.32;;;3.65;;
28774;SDS011;15926;51.348;6.596;2022-10-17T09:07:24;5.53;;;3.05;;
28774;SDS011;15926;51.348;6.596;2022-10-17T09:09:54;4.40;;;3.33;;
28774;SDS011;15926;51.348;6.596;2022-10-17T09:12:24;3.08;;;2.83;;
28774;SDS011;15926;51.348;6.596;2022-10-17T09:22:38;5.10;;;3.03;;
28774;SDS011;15926;51.348;6.596;2022-10-17T09:25:09;4.80;;;2.70;;
28774;SDS011;15926;51.348;6.596;2022-10-17T09:27:37;5.60;;;3.08;;
28774;SDS011;15926;51.348;6.596;2022-10-17T09:32:31;2.88;;;2.67;;
28774;SDS011;15926;51.348;6.596;2022-10-17T09:34:56;3.35;;;3.10;;
28774;SDS011;15926;51.348;6.596;2022-10-17T09:37:24;4.70;;;3.47;;
28774;SDS011;15926;51.348;6.596;2022-10-17T09:39:53;8.32;;;3.40;;
28774;SDS011;15926;51.348;6.596;2022-10-17T09:42:19;6.40;;;2.97;;
28774;SDS011;15926;51.348;6.596;2022-10-17T09:44:54;4.53;;;3.10;;
28774;SDS011;15926;51.348;6.596;2022-10-17T09:47:30;4.68;;;3.42;;
28774;SDS011;15926;51.348;6.596;2022-10-17T09:49:59;4.57;;;3.47;;
28774;SDS011;15926;51.348;6.596;2022-10-17T09:52:27;3.78;;;3.47;;
28774;SDS011;15926;51.348;6.596;2022-10-17T09:54:59;3.60;;;3.28;;
28774;SDS011;15926;51.348;6.596;2022-10-17T09:57:26;6.35;;;3.40;;
28774;SDS011;15926;51.348;6.596;2022-10-17T09:59:59;3.03;;;2.83;;
28774;SDS011;15926;51.348;6.596;2022-10-17T10:02:26;3.90;;;2.58;;
28774;SDS011;15926;51.348;6.596;2022-10-17T10:05:00;5.65;;;2.85;;
28774;SDS011;15926;51.348;6.596;2022-10-17T10:07:27;4.90;;;3.70;;
28774;SDS011;15926;51.348;6.596;2022-10-17T10:09:54;3.63;;;3.28;;
28774;SDS011;15926;51.348;6.596;2022-10-17T10:14:46;4.95;;;3.20;;
28774;SDS011;15926;51.348;6.596;2022-10-17T10:19:57;5.85;;;3.45;;
28774;SDS011;15926;51.348;6.596;2022-10-17T10:22:23;4.45;;;2.95;;
28774;SDS011;15926;51.348;6.596;2022-10-17T10:27:34;5.03;;;2.90;;
28774;SDS011;15926;51.348;6.596;2022-10-17T10:30:01;6.47;;;2.97;;
28774;SDS011;15926;51.348;6.596;2022-10-17T10:32:30;7.32;;;3.25;;
28774;SDS011;15926;51.348;6.596;2022-10-17T10:35:02;5.75;;;2.92;;
28774;SDS011;15926;51.348;6.596;2022-10-17T10:37:37;5.80;;;3.17;;
28774;SDS011;15926;51.348;6.596;2022-10-17T10:40:05;6.63;;;3.05;;
28774;SDS011;15926;51.348;6.596;2022-10-17T10:42:35;5.75;;;2.85;;
28774;SDS011;15926;51.348;6.596;2022-10-17T10:45:14;4.55;;;3.08;;
28774;SDS011;15926;51.348;6.596;2022-10-17T10:47:48;6.47;;;2.90;;
28774;SDS011;15926;51.348;6.596;2022-10-17T10:50:17;3.55;;;3.25;;
28774;SDS011;15926;51.348;6.596;2022-10-17T10:52:51;8.45;;;3.17;;
28774;SDS011;15926;51.348;6.596;2022-10-17T10:55:26;4.32;;;2.92;;
28774;SDS011;15926;51.348;6.596;2022-10-17T10:57:56;6.63;;;3.50;;
28774;SDS011;15926;51.348;6.596;2022-10-17T11:00:24;4.00;;;3.60;;
28774;SDS011;15926;51.348;6.596;2022-10-17T11:02:57;6.75;;;3.75;;
28774;SDS011;15926;51.348;6.596;2022-10-17T11:05:45;7.07;;;3.95;;
28774;SDS011;15926;51.348;6.596;2022-10-17T11:13:21;4.95;;;3.72;;
28774;SDS011;15926;51.348;6.596;2022-10-17T11:15:50;4.88;;;4.10;;
28774;SDS011;15926;51.348;6.596;2022-10-17T11:18:22;9.85;;;4.90;;
28774;SDS011;15926;51.348;6.596;2022-10-17T11:20:58;10.30;;;4.90;;
28774;SDS011;15926;51.348;6.596;2022-10-17T11:25:55;6.55;;;4.45;;
28774;SDS011;15926;51.348;6.596;2022-10-17T11:28:22;7.22;;;4.30;;
28774;SDS011;15926;51.348;6.596;2022-10-17T11:31:00;4.68;;;4.07;;
28774;SDS011;15926;51.348;6.596;2022-10-17T11:33:29;7.50;;;4.67;;
28774;SDS011;15926;51.348;6.596;2022-10-17T11:35:58;7.72;;;5.07;;
28774;SDS011;15926;51.348;6.596;2022-10-17T11:40:52;8.27;;;3.65;;
28774;SDS011;15926;51.348;6.596;2022-10-17T11:45:47;7.43;;;3.72;;
28774;SDS011;15926;51.348;6.596;2022-10-17T11:48:19;3.72;;;3.42;;
28774;SDS011;15926;51.348;6.596;2022-10-17T11:50:47;6.57;;;4.18;;
28774;SDS011;15926;51.348;6.596;2022-10-17T11:55:43;8.15;;;3.88;;
28774;SDS011;15926;51.348;6.596;2022-10-17T12:03:16;5.95;;;4.00;;
28774;SDS011;15926;51.348;6.596;2022-10-17T12:05:47;8.68;;;4.38;;
28774;SDS011;15926;51.348;6.596;2022-10-17T12:08:29;4.22;;;3.80;;
28774;SDS011;15926;51.348;6.596;2022-10-17T12:11:12;7.22;;;3.90;;
28774;SDS011;15926;51.348;6.596;2022-10-17T12:18:44;6.00;;;4.10;;
28774;SDS011;15926;51.348;6.596;2022-10-17T12:21:10;6.97;;;3.90;;
28774;SDS011;15926;51.348;6.596;2022-10-17T12:23:37;4.22;;;3.83;;
28774;SDS011;15926;51.348;6.596;2022-10-17T12:26:05;5.85;;;4.20;;
28774;SDS011;15926;51.348;6.596;2022-10-17T12:31:02;5.43;;;4.25;;
28774;SDS011;15926;51.348;6.596;2022-10-17T12:38:41;3.97;;;3.65;;
28774;SDS011;15926;51.348;6.596;2022-10-17T12:41:07;4.28;;;3.83;;
28774;SDS011;15926;51.348;6.596;2022-10-17T12:46:03;6.95;;;3.80;;
28774;SDS011;15926;51.348;6.596;2022-10-17T12:56:02;9.40;;;3.20;;
28774;SDS011;15926;51.348;6.596;2022-10-17T12:58:28;8.18;;;3.40;;
28774;SDS011;15926;51.348;6.596;2022-10-17T13:00:55;5.70;;;3.22;;
28774;SDS011;15926;51.348;6.596;2022-10-17T13:05:52;3.67;;;3.10;;
28774;SDS011;15926;51.348;6.596;2022-10-17T13:08:23;5.68;;;3.47;;
28774;SDS011;15926;51.348;6.596;2022-10-17T13:10:50;3.72;;;3.17;;
28774;SDS011;15926;51.348;6.596;2022-10-17T13:15:47;6.70;;;3.20;;
28774;SDS011;15926;51.348;6.596;2022-10-17T13:18:31;3.95;;;3.35;;
28774;SDS011;15926;51.348;6.596;2022-10-17T13:20:59;5.95;;;3.22;;
28774;SDS011;15926;51.348;6.596;2022-10-17T13:23:27;3.58;;;2.42;;
28774;SDS011;15926;51.348;6.596;2022-10-17T13:28:32;3.20;;;2.90;;
28774;SDS011;15926;51.348;6.596;2022-10-17T13:30:58;2.70;;;2.53;;
28774;SDS011;15926;51.348;6.596;2022-10-17T13:33:27;3.70;;;3.00;;
28774;SDS011;15926;51.348;6.596;2022-10-17T13:35:54;4.15;;;2.50;;
28774;SDS011;15926;51.348;6.596;2022-10-17T13:38:22;2.95;;;2.58;;
28774;SDS011;15926;51.348;6.596;2022-10-17T13:40:48;2.78;;;2.53;;
28774;SDS011;15926;51.348;6.596;2022-10-17T13:43:18;5.85;;;2.45;;
28774;SDS011;15926;51.348;6.596;2022-10-17T13:45:46;3.47;;;2.30;;
28774;SDS011;15926;51.348;6.596;2022-10-17T13:48:20;3.37;;;2.20;;
28774;SDS011;15926;51.348;6.596;2022-10-17T13:50:48;3.92;;;2.50;;
28774;SDS011;15926;51.348;6.596;2022-10-17T13:53:17;5.85;;;2.40;;
28774;SDS011;15926;51.348;6.596;2022-10-17T13:55:57;8.10;;;2.63;;
28774;SDS011;15926;51.348;6.596;2022-10-17T13:58:23;3.20;;;2.58;;
28774;SDS011;15926;51.348;6.596;2022-10-17T14:00:50;3.83;;;2.30;;
28774;SDS011;15926;51.348;6.596;2022-10-17T14:03:17;3.85;;;2.08;;
28774;SDS011;15926;51.348;6.596;2022-10-17T14:05:57;6.13;;;2.20;;
28774;SDS011;15926;51.348;6.596;2022-10-17T14:08:24;6.70;;;2.40;;
28774;SDS011;15926;51.348;6.596;2022-10-17T14:10:50;3.85;;;2.58;;
28774;SDS011;15926;51.348;6.596;2022-10-17T14:13:18;5.57;;;2.70;;
28774;SDS011;15926;51.348;6.596;2022-10-17T14:15:45;6.07;;;2.45;;
28774;SDS011;15926;51.348;6.596;2022-10-17T14:18:19;3.50;;;2.10;;
28774;SDS011;15926;51.348;6.596;2022-10-17T14:20:46;2.95;;;2.45;;
28774;SDS011;15926;51.348;6.596;2022-10-17T14:23:26;5.07;;;2.63;;
28774;SDS011;15926;51.348;6.596;2022-10-17T14:26:03;3.53;;;2.13;;
28774;SDS011;15926;51.348;6.596;2022-10-17T14:28:29;4.90;;;2.45;;
28774;SDS011;15926;51.348;6.596;2022-10-17T14:31:07;4.63;;;3.05;;
28774;SDS011;15926;51.348;6.596;2022-10-17T14:33:34;7.38;;;3.72;;
28774;SDS011;15926;51.348;6.596;2022-10-17T14:36:00;4.57;;;2.60;;
28774;SDS011;15926;51.348;6.596;2022-10-17T14:38:28;5.05;;;2.40;;
28774;SDS011;15926;51.348;6.596;2022-10-17T14:43:23;2.85;;;2.38;;
28774;SDS011;15926;51.348;6.596;2022-10-17T14:45:50;2.72;;;2.53;;
28774;SDS011;15926;51.348;6.596;2022-10-17T14:48:20;2.92;;;2.47;;
28774;SDS011;15926;51.348;6.596;2022-10-17T14:53:31;8.38;;;2.83;;
28774;SDS011;15926;51.348;6.596;2022-10-17T14:56:01;4.97;;;2.70;;
28774;SDS011;15926;51.348;6.596;2022-10-17T14:58:29;7.38;;;2.90;;
28774;SDS011;15926;51.348;6.596;2022-10-17T15:00:56;5.05;;;2.72;;
28774;SDS011;15926;51.348;6.596;2022-10-17T15:03:22;6.35;;;3.00;;
28774;SDS011;15926;51.348;6.596;2022-10-17T15:05:48;4.97;;;2.80;;
28774;SDS011;15926;51.348;6.596;2022-10-17T15:08:15;6.63;;;2.90;;
28774;SDS011;15926;51.348;6.596;2022-10-17T15:10:42;3.10;;;2.90;;
28774;SDS011;15926;51.348;6.596;2022-10-17T15:13:09;7.18;;;2.90;;
28774;SDS011;15926;51.348;6.596;2022-10-17T15:15:35;7.43;;;2.92;;
28774;SDS011;15926;51.348;6.596;2022-10-17T15:18:02;7.10;;;3.67;;
28774;SDS011;15926;51.348;6.596;2022-10-17T15:20:28;5.50;;;3.65;;
28774;SDS011;15926;51.348;6.596;2022-10-17T15:22:55;5.15;;;3.65;;
28774;SDS011;15926;51.348;6.596;2022-10-17T15:25:22;5.30;;;4.30;;
28774;SDS011;15926;51.348;6.596;2022-10-17T15:27:48;4.88;;;3.38;;
28774;SDS011;15926;51.348;6.596;2022-10-17T15:30:35;3.53;;;3.22;;
28774;SDS011;15926;51.348;6.596;2022-10-17T15:33:00;5.30;;;3.38;;
28774;SDS011;15926;51.348;6.596;2022-10-17T15:35:26;5.22;;;4.10;;
28774;SDS011;15926;51.348;6.596;2022-10-17T15:37:53;6.32;;;3.72;;
28774;SDS011;15926;51.348;6.596;2022-10-17T15:40:20;7.22;;;3.85;;
28774;SDS011;15926;51.348;6.596;2022-10-17T15:42:46;3.95;;;3.65;;
28774;SDS011;15926;51.348;6.596;2022-10-17T15:45:13;4.40;;;4.00;;
28774;SDS011;15926;51.348;6.596;2022-10-17T15:47:40;6.25;;;4.00;;
28774;SDS011;15926;51.348;6.596;2022-10-17T15:50:09;9.48;;;4.32;;
28774;SDS011;15926;51.348;6.596;2022-10-17T15:52:36;4.53;;;3.92;;
28774;SDS011;15926;51.348;6.596;2022-10-17T15:55:02;4.20;;;3.30;;
28774;SDS011;15926;51.348;6.596;2022-10-17T15:57:29;10.13;;;4.28;;
28774;SDS011;15926;51.348;6.596;2022-10-17T15:59:56;6.50;;;4.18;;
28774;SDS011;15926;51.348;6.596;2022-10-17T16:02:23;10.05;;;4.35;;
28774;SDS011;15926;51.348;6.596;2022-10-17T16:04:50;7.30;;;5.22;;
28774;SDS011;15926;51.348;6.596;2022-10-17T16:07:17;6.05;;;4.47;;
28774;SDS011;15926;51.348;6.596;2022-10-17T16:09:43;7.47;;;4.68;;
28774;SDS011;15926;51.348;6.596;2022-10-17T16:12:10;9.50;;;4.57;;
28774;SDS011;15926;51.348;6.596;2022-10-17T16:14:38;5.35;;;4.55;;
28774;SDS011;15926;51.348;6.596;2022-10-17T16:17:04;5.03;;;4.63;;
28774;SDS011;15926;51.348;6.596;2022-10-17T16:19:30;5.32;;;4.82;;
28774;SDS011;15926;51.348;6.596;2022-10-17T16:21:56;6.70;;;4.90;;
28774;SDS011;15926;51.348;6.596;2022-10-17T16:24:24;6.68;;;4.65;;
28774;SDS011;15926;51.348;6.596;2022-10-17T16:26:51;7.57;;;4.60;;
28774;SDS011;15926;51.348;6.596;2022-10-17T16:29:17;5.60;;;4.70;;
28774;SDS011;15926;51.348;6.596;2022-10-17T16:31:43;7.03;;;3.88;;
28774;SDS011;15926;51.348;6.596;2022-10-17T16:34:10;9.55;;;4.40;;
28774;SDS011;15926;51.348;6.596;2022-10-17T16:36:37;6.43;;;5.10;;
28774;SDS011;15926;51.348;6.596;2022-10-17T16:39:03;7.43;;;5.38;;
28774;SDS011;15926;51.348;6.596;2022-10-17T16:41:30;10.25;;;5.38;;
28774;SDS011;15926;51.348;6.596;2022-10-17T16:43:58;6.10;;;5.35;;
28774;SDS011;15926;51.348;6.596;2022-10-17T16:46:24;8.77;;;5.38;;
28774;SDS011;15926;51.348;6.596;2022-10-17T16:48:50;5.55;;;5.13;;
28774;SDS011;15926;51.348;6.596;2022-10-17T16:51:17;6.55;;;5.45;;
28774;SDS011;15926;51.348;6.596;2022-10-17T16:53:47;5.65;;;5.13;;
28774;SDS011;15926;51.348;6.596;2022-10-17T16:56:15;5.60;;;4.82;;
28774;SDS011;15926;51.348;6.596;2022-10-17T16:58:42;8.88;;;5.15;;
28774;SDS011;15926;51.348;6.596;2022-10-17T17:01:09;7.65;;;5.38;;
28774;SDS011;15926;51.348;6.596;2022-10-17T17:03:36;8.27;;;5.10;;
28774;SDS011;15926;51.348;6.596;2022-10-17T17:06:02;9.48;;;5.75;;
28774;SDS011;15926;51.348;6.596;2022-10-17T17:08:29;6.13;;;5.43;;
28774;SDS011;15926;51.348;6.596;2022-10-17T17:10:55;5.57;;;4.97;;
28774;SDS011;15926;51.348;6.596;2022-10-17T17:13:21;5.75;;;5.22;;
28774;SDS011;15926;51.348;6.596;2022-10-17T17:15:47;6.97;;;5.43;;
28774;SDS011;15926;51.348;6.596;2022-10-17T17:18:17;5.60;;;5.05;;
28774;SDS011;15926;51.348;6.596;2022-10-17T17:20:43;8.43;;;5.25;;
28774;SDS011;15926;51.348;6.596;2022-10-17T17:23:09;6.32;;;4.95;;
28774;SDS011;15926;51.348;6.596;2022-10-17T17:25:36;7.65;;;5.82;;
28774;SDS011;15926;51.348;6.596;2022-10-17T17:28:04;8.57;;;5.38;;
28774;SDS011;15926;51.348;6.596;2022-10-17T17:30:31;7.18;;;5.13;;
28774;SDS011;15926;51.348;6.596;2022-10-17T17:32:58;7.47;;;5.10;;
28774;SDS011;15926;51.348;6.596;2022-10-17T17:35:24;10.57;;;5.60;;
28774;SDS011;15926;51.348;6.596;2022-10-17T17:37:50;10.70;;;5.38;;
28774;SDS011;15926;51.348;6.596;2022-10-17T17:40:16;6.80;;;4.72;;
28774;SDS011;15926;51.348;6.596;2022-10-17T17:42:42;8.07;;;5.10;;
28774;SDS011;15926;51.348;6.596;2022-10-17T17:45:08;8.63;;;4.93;;
28774;SDS011;15926;51.348;6.596;2022-10-17T17:47:35;5.30;;;4.90;;
28774;SDS011;15926;51.348;6.596;2022-10-17T17:50:01;8.65;;;4.78;;
28774;SDS011;15926;51.348;6.596;2022-10-17T17:52:27;6.10;;;4.85;;
28774;SDS011;15926;51.348;6.596;2022-10-17T17:54:53;7.55;;;5.00;;
28774;SDS011;15926;51.348;6.596;2022-10-17T17:57:20;10.48;;;5.93;;
28774;SDS011;15926;51.348;6.596;2022-10-17T17:59:46;6.60;;;5.18;;
28774;SDS011;15926;51.348;6.596;2022-10-17T18:02:16;12.40;;;5.18;;
28774;SDS011;15926;51.348;6.596;2022-10-17T18:04:42;8.63;;;5.50;;
28774;SDS011;15926;51.348;6.596;2022-10-17T18:07:08;9.23;;;5.57;;
28774;SDS011;15926;51.348;6.596;2022-10-17T18:09:34;9.05;;;5.65;;
28774;SDS011;15926;51.348;6.596;2022-10-17T18:12:00;9.60;;;5.70;;
28774;SDS011;15926;51.348;6.596;2022-10-17T18:14:26;6.68;;;5.68;;
28774;SDS011;15926;51.348;6.596;2022-10-17T18:16:52;11.02;;;6.07;;
28774;SDS011;15926;51.348;6.596;2022-10-17T18:19:18;9.90;;;6.63;;
28774;SDS011;15926;51.348;6.596;2022-10-17T18:21:44;6.53;;;5.68;;
28774;SDS011;15926;51.348;6.596;2022-10-17T18:24:10;7.68;;;5.75;;
28774;SDS011;15926;51.348;6.596;2022-10-17T18:26:36;7.88;;;5.30;;
28774;SDS011;15926;51.348;6.596;2022-10-17T18:29:02;9.05;;;6.15;;
28774;SDS011;15926;51.348;6.596;2022-10-17T18:31:28;6.78;;;5.53;;
28774;SDS011;15926;51.348;6.596;2022-10-17T18:33:59;6.50;;;5.63;;
28774;SDS011;15926;51.348;6.596;2022-10-17T18:36:26;9.52;;;5.47;;
28774;SDS011;15926;51.348;6.596;2022-10-17T18:38:53;8.90;;;6.18;;
28774;SDS011;15926;51.348;6.596;2022-10-17T18:41:20;7.30;;;5.15;;
28774;SDS011;15926;51.348;6.596;2022-10-17T18:43:47;8.82;;;5.63;;
28774;SDS011;15926;51.348;6.596;2022-10-17T18:46:23;9.77;;;5.50;;
28774;SDS011;15926;51.348;6.596;2022-10-17T18:48:49;7.75;;;5.57;;
28774;SDS011;15926;51.348;6.596;2022-10-17T18:51:17;8.70;;;5.60;;
28774;SDS011;15926;51.348;6.596;2022-10-17T18:53:44;5.65;;;4.68;;
28774;SDS011;15926;51.348;6.596;2022-10-17T18:56:10;9.32;;;5.07;;
28774;SDS011;15926;51.348;6.596;2022-10-17T18:58:37;5.25;;;4.75;;
28774;SDS011;15926;51.348;6.596;2022-10-17T19:01:04;5.57;;;4.53;;
28774;SDS011;15926;51.348;6.596;2022-10-17T19:03:31;6.35;;;5.00;;
28774;SDS011;15926;51.348;6.596;2022-10-17T19:06:00;5.53;;;4.57;;
28774;SDS011;15926;51.348;6.596;2022-10-17T19:08:27;4.60;;;4.18;;
28774;SDS011;15926;51.348;6.596;2022-10-17T19:10:53;8.63;;;4.22;;
28774;SDS011;15926;51.348;6.596;2022-10-17T19:13:19;4.75;;;4.22;;
28774;SDS011;15926;51.348;6.596;2022-10-17T19:15:45;7.60;;;4.05;;
28774;SDS011;15926;51.348;6.596;2022-10-17T19:18:11;5.03;;;4.07;;
28774;SDS011;15926;51.348;6.596;2022-10-17T19:20:37;5.78;;;3.47;;
28774;SDS011;15926;51.348;6.596;2022-10-17T19:23:03;6.53;;;3.72;;
28774;SDS011;15926;51.348;6.596;2022-10-17T19:25:29;3.90;;;3.50;;
28774;SDS011;15926;51.348;6.596;2022-10-17T19:27:56;6.72;;;3.70;;
28774;SDS011;15926;51.348;6.596;2022-10-17T19:30:22;8.93;;;3.17;;
28774;SDS011;15926;51.348;6.596;2022-10-17T19:32:48;4.00;;;3.60;;
28774;SDS011;15926;51.348;6.596;2022-10-17T19:35:14;3.75;;;3.13;;
28774;SDS011;15926;51.348;6.596;2022-10-17T19:37:40;3.97;;;3.25;;
28774;SDS011;15926;51.348;6.596;2022-10-17T19:40:06;3.33;;;2.60;;
28774;SDS011;15926;51.348;6.596;2022-10-17T19:42:33;6.07;;;3.67;;
28774;SDS011;15926;51.348;6.596;2022-10-17T19:44:59;3.20;;;2.90;;
28774;SDS011;15926;51.348;6.596;2022-10-17T19:47:25;3.10;;;2.80;;
28774;SDS011;15926;51.348;6.596;2022-10-17T19:49:51;7.10;;;3.40;;
28774;SDS011;15926;51.348;6.596;2022-10-17T19:52:17;4.78;;;2.50;;
28774;SDS011;15926;51.348;6.596;2022-10-17T19:54:43;3.22;;;2.63;;
28774;SDS011;15926;51.348;6.596;2022-10-17T19:57:09;3.65;;;2.95;;
28774;SDS011;15926;51.348;6.596;2022-10-17T19:59:35;3.53;;;3.22;;
28774;SDS011;15926;51.348;6.596;2022-10-17T20:02:01;6.45;;;2.70;;
28774;SDS011;15926;51.348;6.596;2022-10-17T20:04:27;6.15;;;3.35;;
28774;SDS011;15926;51.348;6.596;2022-10-17T20:06:53;3.75;;;3.38;;